sensor_id;sensor_type;location;lat;lon;timestamp;pressure;altitude;pressure_sealevel;temperature;humidity
55456;BME280;63021;52.836;6.376;2022-11-21T00:01:31;100752.00;;;1.79;76.62
55456;BME280;63021;52.836;6.376;2022-11-21T00:03:56;100743.41;;;1.77;77.03
55456;BME280;63021;52.836;6.376;2022-11-21T00:06:21;100744.22;;;1.78;76.92
55456;BME280;63021;52.836;6.376;2022-11-21T00:08:47;100744.22;;;1.78;77.28
55456;BME280;63021;52.836;6.376;2022-11-21T00:11:13;100749.47;;;1.78;77.29
55456;BME280;63021;52.836;6.376;2022-11-21T00:13:39;100742.47;;;1.78;77.44
55456;BME280;63021;52.836;6.376;2022-11-21T00:16:10;100733.72;;;1.78;77.23
55456;BME280;63021;52.836;6.376;2022-11-21T00:18:36;100728.50;;;1.78;76.58
55456;BME280;63021;52.836;6.376;2022-11-21T00:21:04;100730.28;;;1.77;76.51
55456;BME280;63021;52.836;6.376;2022-11-21T00:23:30;100723.25;;;1.78;77.22
55456;BME280;63021;52.836;6.376;2022-11-21T00:25:55;100728.50;;;1.78;76.71
55456;BME280;63021;52.836;6.376;2022-11-21T00:28:20;100731.88;;;1.80;77.45
55456;BME280;63021;52.836;6.376;2022-11-21T00:30:46;100727.56;;;1.79;76.74
55456;BME280;63021;52.836;6.376;2022-11-21T00:33:11;100723.25;;;1.78;77.20
55456;BME280;63021;52.836;6.376;2022-11-21T00:35:36;100725.03;;;1.77;77.18
55456;BME280;63021;52.836;6.376;2022-11-21T00:38:02;100719.88;;;1.76;76.67
55456;BME280;63021;52.836;6.376;2022-11-21T00:40:27;100724.16;;;1.77;76.80
55456;BME280;63021;52.836;6.376;2022-11-21T00:42:52;100718.09;;;1.76;77.03
55456;BME280;63021;52.836;6.376;2022-11-21T00:45:18;100721.47;;;1.78;77.81
55456;BME280;63021;52.836;6.376;2022-11-21T00:47:43;100715.38;;;1.78;76.85
55456;BME280;63021;52.836;6.376;2022-11-21T00:50:09;100715.38;;;1.78;77.35
55456;BME280;63021;52.836;6.376;2022-11-21T00:52:34;100713.66;;;1.77;77.24
55456;BME280;63021;52.836;6.376;2022-11-21T00:55:00;100712.75;;;1.78;77.31
55456;BME280;63021;52.836;6.376;2022-11-21T00:57:25;100699.72;;;1.76;77.51
55456;BME280;63021;52.836;6.376;2022-11-21T00:59:50;100703.16;;;1.77;76.87
55456;BME280;63021;52.836;6.376;2022-11-21T01:02:16;100707.59;;;1.76;77.69
55456;BME280;63021;52.836;6.376;2022-11-21T01:04:41;100710.22;;;1.76;77.31
55456;BME280;63021;52.836;6.376;2022-11-21T01:07:07;100718.09;;;1.76;77.67
55456;BME280;63021;52.836;6.376;2022-11-21T01:09:32;100718.91;;;1.77;76.94
55456;BME280;63021;52.836;6.376;2022-11-21T01:11:57;100721.63;;;1.75;77.30
55456;BME280;63021;52.836;6.376;2022-11-21T01:14:23;100724.25;;;1.75;77.50
55456;BME280;63021;52.836;6.376;2022-11-21T01:16:49;100723.53;;;1.73;77.64
55456;BME280;63021;52.836;6.376;2022-11-21T01:19:14;100724.25;;;1.75;77.27
55456;BME280;63021;52.836;6.376;2022-11-21T01:21:40;100722.50;;;1.76;77.40
55456;BME280;63021;52.836;6.376;2022-11-21T01:24:05;100723.44;;;1.75;76.95
55456;BME280;63021;52.836;6.376;2022-11-21T01:26:31;100725.13;;;1.76;77.10
55456;BME280;63021;52.836;6.376;2022-11-21T01:29:02;100728.59;;;1.76;77.03
55456;BME280;63021;52.836;6.376;2022-11-21T01:31:29;100731.97;;;1.78;77.63
55456;BME280;63021;52.836;6.376;2022-11-21T01:33:56;100736.34;;;1.78;77.19
55456;BME280;63021;52.836;6.376;2022-11-21T01:36:31;100741.50;;;1.79;77.43
55456;BME280;63021;52.836;6.376;2022-11-21T01:38:58;100742.47;;;1.78;77.10
55456;BME280;63021;52.836;6.376;2022-11-21T01:41:30;100742.47;;;1.78;77.46
55456;BME280;63021;52.836;6.376;2022-11-21T01:44:19;100749.47;;;1.78;77.80
55456;BME280;63021;52.836;6.376;2022-11-21T01:46:43;100735.44;;;1.79;77.75
55456;BME280;63021;52.836;6.376;2022-11-21T01:49:13;100727.47;;;1.80;76.49
55456;BME280;63021;52.836;6.376;2022-11-21T01:52:03;100729.25;;;1.80;76.76
55456;BME280;63021;52.836;6.376;2022-11-21T01:54:41;100730.09;;;1.80;77.61
55456;BME280;63021;52.836;6.376;2022-11-21T01:57:16;100724.84;;;1.80;76.85
55456;BME280;63021;52.836;6.376;2022-11-21T01:59:57;100719.59;;;1.80;77.65
55456;BME280;63021;52.836;6.376;2022-11-21T02:02:27;100726.53;;;1.81;77.23
55456;BME280;63021;52.836;6.376;2022-11-21T02:04:55;100731.03;;;1.79;76.52
55456;BME280;63021;52.836;6.376;2022-11-21T02:07:21;100722.22;;;1.80;76.87
55456;BME280;63021;52.836;6.376;2022-11-21T02:09:55;100710.03;;;1.79;77.06
55456;BME280;63021;52.836;6.376;2022-11-21T02:12:31;100709.09;;;1.80;76.66
55456;BME280;63021;52.836;6.376;2022-11-21T02:14:58;100719.59;;;1.80;77.38
55456;BME280;63021;52.836;6.376;2022-11-21T02:17:25;100717.81;;;1.81;77.81
55456;BME280;63021;52.836;6.376;2022-11-21T02:19:56;100721.28;;;1.81;76.71
55456;BME280;63021;52.836;6.376;2022-11-21T02:25:09;100705.44;;;1.83;77.68
55456;BME280;63021;52.836;6.376;2022-11-21T02:27:36;100709.81;;;1.82;77.04
55456;BME280;63021;52.836;6.376;2022-11-21T02:30:03;100719.50;;;1.82;77.44
55456;BME280;63021;52.836;6.376;2022-11-21T02:32:41;100726.53;;;1.81;77.06
55456;BME280;63021;52.836;6.376;2022-11-21T02:35:07;100718.66;;;1.81;77.33
55456;BME280;63021;52.836;6.376;2022-11-21T02:37:35;100719.50;;;1.82;77.46
55456;BME280;63021;52.836;6.376;2022-11-21T02:40:08;100716.78;;;1.83;77.14
55456;BME280;63021;52.836;6.376;2022-11-21T02:45:53;100707.19;;;1.82;77.58
55456;BME280;63021;52.836;6.376;2022-11-21T02:48:18;100710.69;;;1.83;76.84
55456;BME280;63021;52.836;6.376;2022-11-21T02:50:45;100708.81;;;1.85;77.69
55456;BME280;63021;52.836;6.376;2022-11-21T02:53:15;100702.81;;;1.83;77.69
55456;BME280;63021;52.836;6.376;2022-11-21T02:55:41;100711.44;;;1.85;76.80
55456;BME280;63021;52.836;6.376;2022-11-21T02:58:08;100698.41;;;1.83;77.31
55456;BME280;63021;52.836;6.376;2022-11-21T03:00:35;100700.94;;;1.85;77.75
55456;BME280;63021;52.836;6.376;2022-11-21T03:03:01;100698.50;;;1.82;77.80
55456;BME280;63021;52.836;6.376;2022-11-21T03:05:27;100702.81;;;1.83;77.55
55456;BME280;63021;52.836;6.376;2022-11-21T03:07:52;100696.69;;;1.82;77.30
55456;BME280;63021;52.836;6.376;2022-11-21T03:10:18;100700.19;;;1.83;77.11
55456;BME280;63021;52.836;6.376;2022-11-21T03:12:43;100697.56;;;1.83;76.92
55456;BME280;63021;52.836;6.376;2022-11-21T03:15:13;100695.03;;;1.81;78.11
55456;BME280;63021;52.836;6.376;2022-11-21T03:17:39;100690.72;;;1.80;77.18
55456;BME280;63021;52.836;6.376;2022-11-21T03:20:06;100682.00;;;1.80;77.05
55456;BME280;63021;52.836;6.376;2022-11-21T03:22:32;100682.94;;;1.79;77.25
55456;BME280;63021;52.836;6.376;2022-11-21T03:24:58;100686.59;;;1.76;78.12
55456;BME280;63021;52.836;6.376;2022-11-21T03:27:23;100692.78;;;1.75;76.97
55456;BME280;63021;52.836;6.376;2022-11-21T03:29:48;100689.50;;;1.71;77.83
55456;BME280;63021;52.836;6.376;2022-11-21T03:32:14;100690.53;;;1.69;77.04
55456;BME280;63021;52.836;6.376;2022-11-21T03:34:39;100699.53;;;1.65;77.72
55456;BME280;63021;52.836;6.376;2022-11-21T03:37:05;100710.31;;;1.60;77.24
55456;BME280;63021;52.836;6.376;2022-11-21T03:39:30;100700.09;;;1.55;77.40
55456;BME280;63021;52.836;6.376;2022-11-21T03:41:56;100702.13;;;1.50;77.74
55456;BME280;63021;52.836;6.376;2022-11-21T03:44:21;100702.41;;;1.46;77.45
55456;BME280;63021;52.836;6.376;2022-11-21T03:46:47;100713.09;;;1.43;77.63
55456;BME280;63021;52.836;6.376;2022-11-21T03:49:13;100709.88;;;1.37;77.74
55456;BME280;63021;52.836;6.376;2022-11-21T03:51:40;100707.53;;;1.33;78.22
55456;BME280;63021;52.836;6.376;2022-11-21T03:54:06;100701.72;;;1.28;77.60
55456;BME280;63021;52.836;6.376;2022-11-21T03:56:33;100701.16;;;1.23;77.92
55456;BME280;63021;52.836;6.376;2022-11-21T03:58:58;100696.94;;;1.20;77.67
55456;BME280;63021;52.836;6.376;2022-11-21T04:01:24;100692.81;;;1.16;77.39
55456;BME280;63021;52.836;6.376;2022-11-21T04:03:49;100697.41;;;1.12;77.32
55456;BME280;63021;52.836;6.376;2022-11-21T04:06:17;100701.88;;;1.10;77.73
55456;BME280;63021;52.836;6.376;2022-11-21T04:08:43;100700.44;;;1.04;78.17
55456;BME280;63021;52.836;6.376;2022-11-21T04:11:09;100688.34;;;1.02;78.09
55456;BME280;63021;52.836;6.376;2022-11-21T04:13:34;100690.31;;;0.98;77.71
55456;BME280;63021;52.836;6.376;2022-11-21T04:15:59;100691.34;;;0.96;77.81
55456;BME280;63021;52.836;6.376;2022-11-21T04:18:25;100682.91;;;0.91;77.97
55456;BME280;63021;52.836;6.376;2022-11-21T04:21:02;100678.78;;;0.86;78.25
55456;BME280;63021;52.836;6.376;2022-11-21T04:23:28;100672.03;;;0.82;77.71
55456;BME280;63021;52.836;6.376;2022-11-21T04:25:54;100666.19;;;0.77;78.08
55456;BME280;63021;52.836;6.376;2022-11-21T04:28:19;100661.97;;;0.75;78.71
55456;BME280;63021;52.836;6.376;2022-11-21T04:30:45;100657.19;;;0.67;77.74
55456;BME280;63021;52.836;6.376;2022-11-21T04:33:11;100659.06;;;0.65;77.95
55456;BME280;63021;52.836;6.376;2022-11-21T04:35:37;100650.59;;;0.60;78.15
55456;BME280;63021;52.836;6.376;2022-11-21T04:38:02;100635.97;;;0.56;78.32
55456;BME280;63021;52.836;6.376;2022-11-21T04:40:28;100631.94;;;0.50;78.34
55456;BME280;63021;52.836;6.376;2022-11-21T04:42:53;100621.63;;;0.47;78.54
55456;BME280;63021;52.836;6.376;2022-11-21T04:45:18;100627.16;;;0.42;79.10
55456;BME280;63021;52.836;6.376;2022-11-21T04:47:45;100631.59;;;0.40;78.15
55456;BME280;63021;52.836;6.376;2022-11-21T04:50:13;100627.50;;;0.36;77.91
55456;BME280;63021;52.836;6.376;2022-11-21T04:52:40;100627.66;;;0.33;78.13
55456;BME280;63021;52.836;6.376;2022-11-21T04:55:06;100631.22;;;0.32;78.60
55456;BME280;63021;52.836;6.376;2022-11-21T04:57:32;100630.44;;;0.30;79.08
55456;BME280;63021;52.836;6.376;2022-11-21T04:59:58;100632.31;;;0.28;78.55
55456;BME280;63021;52.836;6.376;2022-11-21T05:02:23;100625.56;;;0.24;78.52
55456;BME280;63021;52.836;6.376;2022-11-21T05:04:49;100617.97;;;0.19;78.29
55456;BME280;63021;52.836;6.376;2022-11-21T05:07:15;100620.00;;;0.14;78.82
55456;BME280;63021;52.836;6.376;2022-11-21T05:09:40;100627.94;;;0.12;78.81
55456;BME280;63021;52.836;6.376;2022-11-21T05:12:08;100624.66;;;0.09;78.85
55456;BME280;63021;52.836;6.376;2022-11-21T05:14:52;100632.75;;;0.04;78.61
55456;BME280;63021;52.836;6.376;2022-11-21T05:17:18;100639.94;;;0.01;78.50
55456;BME280;63021;52.836;6.376;2022-11-21T05:19:43;100639.16;;;-0.02;78.85
55456;BME280;63021;52.836;6.376;2022-11-21T05:22:08;100631.47;;;-0.05;78.46
55456;BME280;63021;52.836;6.376;2022-11-21T05:24:34;100625.56;;;-0.08;79.16
55456;BME280;63021;52.836;6.376;2022-11-21T05:26:59;100630.97;;;-0.11;79.03
55456;BME280;63021;52.836;6.376;2022-11-21T05:29:24;100632.81;;;-0.13;78.65
55456;BME280;63021;52.836;6.376;2022-11-21T05:31:50;100622.53;;;-0.16;78.65
55456;BME280;63021;52.836;6.376;2022-11-21T05:34:15;100618.31;;;-0.19;78.34
55456;BME280;63021;52.836;6.376;2022-11-21T05:36:40;100607.91;;;-0.21;79.22
55456;BME280;63021;52.836;6.376;2022-11-21T05:39:06;100618.47;;;-0.22;79.56
55456;BME280;63021;52.836;6.376;2022-11-21T05:41:31;100614.25;;;-0.25;79.05
55456;BME280;63021;52.836;6.376;2022-11-21T05:43:57;100605.66;;;-0.27;78.83
55456;BME280;63021;52.836;6.376;2022-11-21T05:46:24;100604.13;;;-0.31;78.76
55456;BME280;63021;52.836;6.376;2022-11-21T05:48:50;100610.28;;;-0.32;79.40
55456;BME280;63021;52.836;6.376;2022-11-21T05:51:17;100612.31;;;-0.37;79.37
55456;BME280;63021;52.836;6.376;2022-11-21T05:53:43;100609.88;;;-0.40;79.30
55456;BME280;63021;52.836;6.376;2022-11-21T05:56:14;100609.88;;;-0.40;78.87
55456;BME280;63021;52.836;6.376;2022-11-21T05:58:40;100602.06;;;-0.42;79.47
55456;BME280;63021;52.836;6.376;2022-11-21T06:01:07;100591.78;;;-0.45;79.15
55456;BME280;63021;52.836;6.376;2022-11-21T06:03:35;100590.94;;;-0.45;79.24
55456;BME280;63021;52.836;6.376;2022-11-21T06:06:09;100591.13;;;-0.48;78.87
55456;BME280;63021;52.836;6.376;2022-11-21T06:08:37;100592.03;;;-0.49;79.11
55456;BME280;63021;52.836;6.376;2022-11-21T06:11:03;100588.50;;;-0.48;78.65
55456;BME280;63021;52.836;6.376;2022-11-21T06:13:30;100585.00;;;-0.49;79.61
55456;BME280;63021;52.836;6.376;2022-11-21T06:18:28;100577.25;;;-0.50;79.06
55456;BME280;63021;52.836;6.376;2022-11-21T06:21:00;100572.13;;;-0.52;79.24
55456;BME280;63021;52.836;6.376;2022-11-21T06:23:25;100566.13;;;-0.54;79.31
55456;BME280;63021;52.836;6.376;2022-11-21T06:25:55;100568.75;;;-0.54;79.55
55456;BME280;63021;52.836;6.376;2022-11-21T06:28:21;100552.44;;;-0.59;79.29
55456;BME280;63021;52.836;6.376;2022-11-21T06:30:47;100555.06;;;-0.59;79.07
55456;BME280;63021;52.836;6.376;2022-11-21T06:33:16;100557.84;;;-0.62;79.02
55456;BME280;63021;52.836;6.376;2022-11-21T06:35:42;100559.72;;;-0.64;79.56
55456;BME280;63021;52.836;6.376;2022-11-21T06:38:08;100549.44;;;-0.67;78.91
55456;BME280;63021;52.836;6.376;2022-11-21T06:40:33;100556.50;;;-0.70;79.47
55456;BME280;63021;52.836;6.376;2022-11-21T06:42:59;100545.19;;;-0.70;79.17
55456;BME280;63021;52.836;6.376;2022-11-21T06:45:24;100554.03;;;-0.73;79.20
55456;BME280;63021;52.836;6.376;2022-11-21T06:47:50;100551.44;;;-0.73;79.29
55456;BME280;63021;52.836;6.376;2022-11-21T06:50:15;100545.50;;;-0.76;78.66
55456;BME280;63021;52.836;6.376;2022-11-21T06:52:40;100556.75;;;-0.74;78.67
55456;BME280;63021;52.836;6.376;2022-11-21T06:55:08;100548.13;;;-0.76;78.93
55456;BME280;63021;52.836;6.376;2022-11-21T06:57:33;100549.97;;;-0.78;78.48
55456;BME280;63021;52.836;6.376;2022-11-21T06:59:58;100559.53;;;-0.77;79.45
55456;BME280;63021;52.836;6.376;2022-11-21T07:02:24;100554.28;;;-0.77;78.50
55456;BME280;63021;52.836;6.376;2022-11-21T07:04:49;100554.28;;;-0.77;79.32
55456;BME280;63021;52.836;6.376;2022-11-21T07:07:14;100558.66;;;-0.78;78.92
55456;BME280;63021;52.836;6.376;2022-11-21T07:09:40;100558.56;;;-0.76;78.77
55456;BME280;63021;52.836;6.376;2022-11-21T07:12:09;100547.19;;;-0.75;78.78
55456;BME280;63021;52.836;6.376;2022-11-21T07:14:53;100546.28;;;-0.74;78.91
55456;BME280;63021;52.836;6.376;2022-11-21T07:17:18;100548.06;;;-0.75;79.37
55456;BME280;63021;52.836;6.376;2022-11-21T07:19:44;100546.28;;;-0.74;78.42
55456;BME280;63021;52.836;6.376;2022-11-21T07:22:09;100550.50;;;-0.72;78.82
55456;BME280;63021;52.836;6.376;2022-11-21T07:24:34;100548.72;;;-0.71;78.72
55456;BME280;63021;52.836;6.376;2022-11-21T07:27:00;100550.44;;;-0.70;78.85
55456;BME280;63021;52.836;6.376;2022-11-21T07:29:26;100549.56;;;-0.71;78.76
55456;BME280;63021;52.836;6.376;2022-11-21T07:31:51;100554.72;;;-0.69;78.72
55456;BME280;63021;52.836;6.376;2022-11-21T07:34:17;100548.56;;;-0.68;79.32
55456;BME280;63021;52.836;6.376;2022-11-21T07:36:42;100546.72;;;-0.66;78.52
55456;BME280;63021;52.836;6.376;2022-11-21T07:39:07;100551.88;;;-0.64;79.44
55456;BME280;63021;52.836;6.376;2022-11-21T07:41:33;100546.66;;;-0.64;79.26
55456;BME280;63021;52.836;6.376;2022-11-21T07:43:58;100551.69;;;-0.61;78.73
55456;BME280;63021;52.836;6.376;2022-11-21T07:46:23;100549.00;;;-0.60;79.09
55456;BME280;63021;52.836;6.376;2022-11-21T07:48:49;100554.06;;;-0.57;79.74
55456;BME280;63021;52.836;6.376;2022-11-21T07:51:17;100557.47;;;-0.55;79.63
55456;BME280;63021;52.836;6.376;2022-11-21T07:53:42;100552.97;;;-0.53;79.54
55456;BME280;63021;52.836;6.376;2022-11-21T07:56:07;100541.50;;;-0.50;78.89
55456;BME280;63021;52.836;6.376;2022-11-21T07:58:35;100550.97;;;-0.47;79.06
55456;BME280;63021;52.836;6.376;2022-11-21T08:01:05;100539.66;;;-0.48;79.08
55456;BME280;63021;52.836;6.376;2022-11-21T08:03:34;100538.56;;;-0.44;78.93
55456;BME280;63021;52.836;6.376;2022-11-21T08:06:01;100534.84;;;-0.40;78.94
55456;BME280;63021;52.836;6.376;2022-11-21T08:08:28;100532.16;;;-0.38;79.08
55456;BME280;63021;52.836;6.376;2022-11-21T08:10:53;100525.13;;;-0.38;79.65
55456;BME280;63021;52.836;6.376;2022-11-21T08:13:18;100528.53;;;-0.36;79.01
55456;BME280;63021;52.836;6.376;2022-11-21T08:15:44;100520.50;;;-0.32;79.99
55456;BME280;63021;52.836;6.376;2022-11-21T08:18:11;100523.78;;;-0.29;79.40
55456;BME280;63021;52.836;6.376;2022-11-21T08:20:37;100521.09;;;-0.27;79.66
55456;BME280;63021;52.836;6.376;2022-11-21T08:23:02;100520.16;;;-0.26;79.63
55456;BME280;63021;52.836;6.376;2022-11-21T08:25:28;100520.84;;;-0.23;79.08
55456;BME280;63021;52.836;6.376;2022-11-21T08:27:57;100538.06;;;-0.19;80.09
55456;BME280;63021;52.836;6.376;2022-11-21T08:30:23;100534.50;;;-0.18;79.88
55456;BME280;63021;52.836;6.376;2022-11-21T08:32:48;100528.16;;;-0.13;79.60
55456;BME280;63021;52.836;6.376;2022-11-21T08:35:14;100540.22;;;-0.11;79.69
55456;BME280;63021;52.836;6.376;2022-11-21T08:37:39;100533.91;;;-0.07;79.11
55456;BME280;63021;52.836;6.376;2022-11-21T08:40:05;100527.47;;;-0.01;79.22
55456;BME280;63021;52.836;6.376;2022-11-21T08:42:31;100523.75;;;0.03;79.52
55456;BME280;63021;52.836;6.376;2022-11-21T08:44:56;100518.34;;;0.06;80.27
55456;BME280;63021;52.836;6.376;2022-11-21T08:47:22;100516.31;;;0.11;79.85
55456;BME280;63021;52.836;6.376;2022-11-21T08:49:48;100515.00;;;0.19;80.06
55456;BME280;63021;52.836;6.376;2022-11-21T08:52:15;100512.06;;;0.25;79.91
55456;BME280;63021;52.836;6.376;2022-11-21T08:54:42;100512.63;;;0.30;79.85
55456;BME280;63021;52.836;6.376;2022-11-21T08:57:08;100507.97;;;0.35;79.88
55456;BME280;63021;52.836;6.376;2022-11-21T08:59:34;100513.63;;;0.43;79.75
55456;BME280;63021;52.836;6.376;2022-11-21T09:01:59;100520.34;;;0.47;79.67
55456;BME280;63021;52.836;6.376;2022-11-21T09:04:25;100515.88;;;0.49;79.50
55456;BME280;63021;52.836;6.376;2022-11-21T09:06:50;100519.13;;;0.53;79.62
55456;BME280;63021;52.836;6.376;2022-11-21T09:09:16;100527.66;;;0.57;80.38
55456;BME280;63021;52.836;6.376;2022-11-21T09:11:41;100530.09;;;0.60;79.81
55456;BME280;63021;52.836;6.376;2022-11-21T09:14:07;100521.97;;;0.64;79.45
55456;BME280;63021;52.836;6.376;2022-11-21T09:16:50;100519.25;;;0.66;79.70
55456;BME280;63021;52.836;6.376;2022-11-21T09:19:34;100517.41;;;0.68;79.30
55456;BME280;63021;52.836;6.376;2022-11-21T09:22:00;100518.91;;;0.72;80.47
55456;BME280;63021;52.836;6.376;2022-11-21T09:24:25;100497.00;;;0.73;79.95
55456;BME280;63021;52.836;6.376;2022-11-21T09:26:50;100492.50;;;0.75;79.45
55456;BME280;63021;52.836;6.376;2022-11-21T09:29:16;100489.69;;;0.78;79.88
55456;BME280;63021;52.836;6.376;2022-11-21T09:31:42;100482.47;;;0.82;79.41
55456;BME280;63021;52.836;6.376;2022-11-21T09:34:08;100478.84;;;0.84;80.23
55456;BME280;63021;52.836;6.376;2022-11-21T09:36:33;100471.75;;;0.86;80.72
55456;BME280;63021;52.836;6.376;2022-11-21T09:38:59;100476.69;;;0.91;79.82
55456;BME280;63021;52.836;6.376;2022-11-21T09:41:38;100476.50;;;0.94;80.79
55456;BME280;63021;52.836;6.376;2022-11-21T09:44:38;100469.31;;;0.98;80.63
55456;BME280;63021;52.836;6.376;2022-11-21T09:47:24;100465.53;;;1.02;79.61
55456;BME280;63021;52.836;6.376;2022-11-21T09:52:36;100461.69;;;1.08;79.67
55456;BME280;63021;52.836;6.376;2022-11-21T09:57:46;100458.53;;;1.17;80.02
55456;BME280;63021;52.836;6.376;2022-11-21T10:00:24;100454.47;;;1.26;79.98
55456;BME280;63021;52.836;6.376;2022-11-21T10:02:50;100436.75;;;1.29;80.33
55456;BME280;63021;52.836;6.376;2022-11-21T10:05:16;100439.09;;;1.34;80.21
55456;BME280;63021;52.836;6.376;2022-11-21T10:07:49;100435.34;;;1.38;80.72
55456;BME280;63021;52.836;6.376;2022-11-21T10:10:33;100427.28;;;1.41;79.75
55456;BME280;63021;52.836;6.376;2022-11-21T10:16:06;100411.88;;;1.49;79.81
55456;BME280;63021;52.836;6.376;2022-11-21T10:29:30;100406.38;;;1.67;79.49
55456;BME280;63021;52.836;6.376;2022-11-21T10:34:42;100402.13;;;1.79;80.26
55456;BME280;63021;52.836;6.376;2022-11-21T10:37:29;100401.81;;;1.83;80.25
55456;BME280;63021;52.836;6.376;2022-11-21T10:40:07;100394.47;;;1.88;79.91
55456;BME280;63021;52.836;6.376;2022-11-21T10:42:52;100384.50;;;1.94;80.66
55456;BME280;63021;52.836;6.376;2022-11-21T10:45:20;100383.34;;;1.98;80.65
55456;BME280;63021;52.836;6.376;2022-11-21T10:47:50;100375.25;;;2.01;79.51
55456;BME280;63021;52.836;6.376;2022-11-21T10:52:48;100351.75;;;2.12;80.21
55456;BME280;63021;52.836;6.376;2022-11-21T10:55:15;100343.38;;;2.20;80.26
55456;BME280;63021;52.836;6.376;2022-11-21T10:57:49;100342.59;;;2.31;80.51
55456;BME280;63021;52.836;6.376;2022-11-21T11:05:28;100336.88;;;2.63;79.60
55456;BME280;63021;52.836;6.376;2022-11-21T11:08:13;100330.88;;;2.73;80.42
55456;BME280;63021;52.836;6.376;2022-11-21T11:10:44;100330.22;;;2.83;79.57
55456;BME280;63021;52.836;6.376;2022-11-21T11:13:14;100323.44;;;2.91;80.10
55456;BME280;63021;52.836;6.376;2022-11-21T11:18:34;100326.91;;;3.05;79.38
55456;BME280;63021;52.836;6.376;2022-11-21T11:21:21;100321.06;;;3.12;79.62
55456;BME280;63021;52.836;6.376;2022-11-21T11:23:48;100331.13;;;3.19;79.45
55456;BME280;63021;52.836;6.376;2022-11-21T11:26:25;100331.53;;;3.25;79.13
55456;BME280;63021;52.836;6.376;2022-11-21T11:28:52;100329.41;;;3.31;79.23
55456;BME280;63021;52.836;6.376;2022-11-21T11:31:18;100327.28;;;3.36;79.26
55456;BME280;63021;52.836;6.376;2022-11-21T11:38:52;100309.00;;;3.45;78.83
55456;BME280;63021;52.836;6.376;2022-11-21T11:41:41;100296.44;;;3.49;78.90
55456;BME280;63021;52.836;6.376;2022-11-21T11:48:00;100277.34;;;3.58;79.05
55456;BME280;63021;52.836;6.376;2022-11-21T11:50:31;100269.22;;;3.61;78.96
55456;BME280;63021;52.836;6.376;2022-11-21T11:53:17;100256.69;;;3.65;78.75
55456;BME280;63021;52.836;6.376;2022-11-21T11:55:48;100241.47;;;3.69;78.94
55456;BME280;63021;52.836;6.376;2022-11-21T12:01:35;100235.97;;;3.72;78.53
55456;BME280;63021;52.836;6.376;2022-11-21T12:04:19;100229.63;;;3.74;78.87
55456;BME280;63021;52.836;6.376;2022-11-21T12:12:09;100209.19;;;3.78;78.63
55456;BME280;63021;52.836;6.376;2022-11-21T12:17:34;100200.31;;;3.79;78.82
55456;BME280;63021;52.836;6.376;2022-11-21T12:20:11;100188.84;;;3.80;77.89
55456;BME280;63021;52.836;6.376;2022-11-21T12:22:38;100208.22;;;3.79;78.50
55456;BME280;63021;52.836;6.376;2022-11-21T12:25:09;100199.38;;;3.80;78.61
55456;BME280;63021;52.836;6.376;2022-11-21T12:27:35;100201.06;;;3.81;77.58
55456;BME280;63021;52.836;6.376;2022-11-21T12:44:01;100188.84;;;3.80;78.22
55456;BME280;63021;52.836;6.376;2022-11-21T12:47:00;100181.88;;;3.79;77.69
55456;BME280;63021;52.836;6.376;2022-11-21T12:49:40;100180.22;;;3.78;77.47
55456;BME280;63021;52.836;6.376;2022-11-21T12:52:40;100169.69;;;3.78;77.56
55456;BME280;63021;52.836;6.376;2022-11-21T12:55:34;100168.03;;;3.77;77.82
55456;BME280;63021;52.836;6.376;2022-11-21T13:01:09;100165.38;;;3.77;77.71
55456;BME280;63021;52.836;6.376;2022-11-21T13:03:46;100157.50;;;3.77;78.76
55456;BME280;63021;52.836;6.376;2022-11-21T13:06:26;100155.44;;;3.80;78.70
55456;BME280;63021;52.836;6.376;2022-11-21T13:08:54;100156.41;;;3.79;78.44
55456;BME280;63021;52.836;6.376;2022-11-21T13:14:45;100154.13;;;3.86;78.25
55456;BME280;63021;52.836;6.376;2022-11-21T13:22:49;100141.69;;;3.88;79.03
55456;BME280;63021;52.836;6.376;2022-11-21T13:27:48;100126.72;;;3.89;79.15
55456;BME280;63021;52.836;6.376;2022-11-21T13:30:17;100121.69;;;3.86;78.46
55456;BME280;63021;52.836;6.376;2022-11-21T13:45:43;100096.06;;;3.88;78.69
55456;BME280;63021;52.836;6.376;2022-11-21T14:04:43;100049.66;;;3.87;78.98
55456;BME280;63021;52.836;6.376;2022-11-21T14:07:35;100052.41;;;3.85;79.19
55456;BME280;63021;52.836;6.376;2022-11-21T14:10:05;100045.34;;;3.86;79.16
55456;BME280;63021;52.836;6.376;2022-11-21T14:12:46;100044.38;;;3.87;78.89
55456;BME280;63021;52.836;6.376;2022-11-21T14:15:28;100046.91;;;3.88;78.69
55456;BME280;63021;52.836;6.376;2022-11-21T14:17:57;100038.13;;;3.88;79.59
55456;BME280;63021;52.836;6.376;2022-11-21T14:23:19;100042.31;;;3.90;78.73
55456;BME280;63021;52.836;6.376;2022-11-21T14:25:48;100037.91;;;3.91;78.62
55456;BME280;63021;52.836;6.376;2022-11-21T14:28:28;100038.75;;;3.91;79.54
55456;BME280;63021;52.836;6.376;2022-11-21T14:30:59;100033.59;;;3.90;79.48
55456;BME280;63021;52.836;6.376;2022-11-21T14:33:27;100032.66;;;3.91;79.29
55456;BME280;63021;52.836;6.376;2022-11-21T14:36:22;100026.78;;;3.87;79.64
55456;BME280;63021;52.836;6.376;2022-11-21T14:39:00;100026.78;;;3.87;79.04
55456;BME280;63021;52.836;6.376;2022-11-21T14:41:31;100026.78;;;3.87;79.52
55456;BME280;63021;52.836;6.376;2022-11-21T14:46:24;100022.47;;;3.86;79.46
55456;BME280;63021;52.836;6.376;2022-11-21T14:48:49;100018.31;;;3.84;79.95
55456;BME280;63021;52.836;6.376;2022-11-21T14:51:19;100017.31;;;3.85;79.74
55456;BME280;63021;52.836;6.376;2022-11-21T14:53:47;100013.88;;;3.84;80.45
55456;BME280;63021;52.836;6.376;2022-11-21T14:56:27;100011.09;;;3.86;79.76
55456;BME280;63021;52.836;6.376;2022-11-21T14:58:55;100004.03;;;3.86;80.37
55456;BME280;63021;52.836;6.376;2022-11-21T15:01:27;99997.94;;;3.86;80.17
55456;BME280;63021;52.836;6.376;2022-11-21T15:06:20;99992.81;;;3.84;80.08
55456;BME280;63021;52.836;6.376;2022-11-21T15:08:45;99987.28;;;3.87;79.74
55456;BME280;63021;52.836;6.376;2022-11-21T15:11:12;99990.75;;;3.88;80.72
55456;BME280;63021;52.836;6.376;2022-11-21T15:13:39;99987.16;;;3.89;80.26